Portada
METAR-TAF:

METAR-TAF

Aeroports :

Greenwood County Airport

Greenwood, Carolina del Sud, Estats Units d'Amèrica

latitud: 34-14-50N, longitud: 082-09-17W, altitud: 192 m

Observació

L'informe es va fer fa 34 minuts, a les 09:56 UTC
Vent calma
Temperatura 16°C
Humitat 94%
Pressió 1015 hPa
Visibilitat: 16.1 km
Cel clar

METAR: KGRD 210956Z AUTO 00000KT 10SM CLR 16/15 A2996 RMK AO2 SLP140 T01610150

Hora: 06:30 (10:30 UTC)


TAF: manca

Observacions i pronòstics meteorològics de més de 4000 aeroports (METAR i TAF).

Les estacions disponibles són els punts grocs i vermells al mapa.

Posi el ratolí al punt desitjat per veure el nom de l'estació.

Feu clic per veure les observacions i els pronòstics meteorològics.

Per canviar el mapa: feu clic els botons verds amb una creu de color negre per apropar; al botó verd amb un guió per allunyar la imatge; o en les fletxes verdes per a mapes adjacents.


METAR-TAF: